sensor_id;sensor_type;location;lat;lon;timestamp;pressure;altitude;pressure_sealevel;temperature;humidity
67434;BME280;54305;47.950;6.572;2023-04-08T00:01:46;94566.25;;;2.49;100.00
67434;BME280;54305;47.950;6.572;2023-04-08T00:04:11;94566.69;;;2.43;100.00
67434;BME280;54305;47.950;6.572;2023-04-08T00:06:38;94566.91;;;2.40;100.00
67434;BME280;54305;47.950;6.572;2023-04-08T00:09:03;94564.84;;;2.45;100.00
67434;BME280;54305;47.950;6.572;2023-04-08T00:11:29;94570.28;;;2.40;100.00
67434;BME280;54305;47.950;6.572;2023-04-08T00:13:54;94572.78;;;2.29;100.00
67434;BME280;54305;47.950;6.572;2023-04-08T00:16:20;94568.88;;;2.24;100.00
67434;BME280;54305;47.950;6.572;2023-04-08T00:18:45;94571.44;;;2.24;100.00
67434;BME280;54305;47.950;6.572;2023-04-08T00:21:11;94572.09;;;2.15;100.00
67434;BME280;54305;47.950;6.572;2023-04-08T00:23:37;94574.16;;;2.10;100.00
67434;BME280;54305;47.950;6.572;2023-04-08T00:26:02;94572.09;;;2.15;100.00
67434;BME280;54305;47.950;6.572;2023-04-08T00:28:28;94572.31;;;2.12;100.00
67434;BME280;54305;47.950;6.572;2023-04-08T00:30:53;94579.16;;;2.24;100.00
67434;BME280;54305;47.950;6.572;2023-04-08T00:33:19;94586.09;;;2.11;100.00
67434;BME280;54305;47.950;6.572;2023-04-08T00:35:44;94579.09;;;2.13;100.00
67434;BME280;54305;47.950;6.572;2023-04-08T00:38:10;94575.88;;;2.22;100.00
67434;BME280;54305;47.950;6.572;2023-04-08T00:40:35;94571.75;;;2.32;100.00
67434;BME280;54305;47.950;6.572;2023-04-08T00:43:00;94574.88;;;2.48;100.00
67434;BME280;54305;47.950;6.572;2023-04-08T00:45:26;94571.81;;;2.43;100.00
67434;BME280;54305;47.950;6.572;2023-04-08T00:47:51;94575.47;;;2.28;100.00
67434;BME280;54305;47.950;6.572;2023-04-08T00:50:17;94571.88;;;2.18;100.00
67434;BME280;54305;47.950;6.572;2023-04-08T00:52:42;94574.38;;;2.07;100.00
67434;BME280;54305;47.950;6.572;2023-04-08T00:55:07;94573.09;;;2.25;100.00
67434;BME280;54305;47.950;6.572;2023-04-08T00:57:33;94570.22;;;2.29;100.00
67434;BME280;54305;47.950;6.572;2023-04-08T00:59:58;94576.19;;;2.30;100.00
67434;BME280;54305;47.950;6.572;2023-04-08T01:04:58;94573.31;;;2.22;100.00
67434;BME280;54305;47.950;6.572;2023-04-08T01:07:28;94573.94;;;2.13;100.00
67434;BME280;54305;47.950;6.572;2023-04-08T01:09:56;94568.31;;;2.08;100.00
67434;BME280;54305;47.950;6.572;2023-04-08T01:12:26;94575.50;;;2.03;100.00
67434;BME280;54305;47.950;6.572;2023-04-08T01:14:58;94571.31;;;2.02;100.00
67434;BME280;54305;47.950;6.572;2023-04-08T01:17:25;94575.81;;;2.11;100.00
67434;BME280;54305;47.950;6.572;2023-04-08T01:19:50;94577.72;;;2.20;100.00
67434;BME280;54305;47.950;6.572;2023-04-08T01:25:04;94581.34;;;2.05;100.00
67434;BME280;54305;47.950;6.572;2023-04-08T01:27:32;94583.41;;;2.00;100.00
67434;BME280;54305;47.950;6.572;2023-04-08T01:30:02;94588.13;;;1.93;100.00
67434;BME280;54305;47.950;6.572;2023-04-08T01:32:28;94583.41;;;2.00;100.00
67434;BME280;54305;47.950;6.572;2023-04-08T01:34:57;94580.09;;;2.23;100.00
67434;BME280;54305;47.950;6.572;2023-04-08T01:37:23;94581.97;;;2.21;100.00
67434;BME280;54305;47.950;6.572;2023-04-08T01:39:49;94580.72;;;2.14;100.00
67434;BME280;54305;47.950;6.572;2023-04-08T01:42:16;94591.41;;;2.08;100.00
67434;BME280;54305;47.950;6.572;2023-04-08T01:44:41;94592.56;;;2.04;100.00
67434;BME280;54305;47.950;6.572;2023-04-08T01:47:08;94585.97;;;2.00;100.00
67434;BME280;54305;47.950;6.572;2023-04-08T01:49:34;94575.50;;;2.03;100.00
67434;BME280;54305;47.950;6.572;2023-04-08T01:52:00;94581.84;;;2.35;100.00
67434;BME280;54305;47.950;6.572;2023-04-08T01:54:25;94573.25;;;2.47;100.00
67434;BME280;54305;47.950;6.572;2023-04-08T01:56:51;94577.75;;;2.56;100.00
67434;BME280;54305;47.950;6.572;2023-04-08T01:59:18;94576.53;;;2.49;100.00
67434;BME280;54305;47.950;6.572;2023-04-08T02:01:46;94580.78;;;2.37;100.00
67434;BME280;54305;47.950;6.572;2023-04-08T02:04:11;94584.81;;;2.29;100.00
67434;BME280;54305;47.950;6.572;2023-04-08T02:06:37;94581.97;;;2.21;100.00
67434;BME280;54305;47.950;6.572;2023-04-08T02:09:03;94587.81;;;2.10;100.00
67434;BME280;54305;47.950;6.572;2023-04-08T02:11:29;94575.81;;;2.11;100.00
67434;BME280;54305;47.950;6.572;2023-04-08T02:13:55;94584.22;;;2.13;100.00
67434;BME280;54305;47.950;6.572;2023-04-08T02:16:22;94582.78;;;2.09;100.00
67434;BME280;54305;47.950;6.572;2023-04-08T02:18:57;94581.34;;;2.05;100.00
67434;BME280;54305;47.950;6.572;2023-04-08T02:21:26;94583.00;;;2.18;100.00
67434;BME280;54305;47.950;6.572;2023-04-08T02:23:53;94580.09;;;2.23;100.00
67434;BME280;54305;47.950;6.572;2023-04-08T02:26:19;94584.81;;;2.29;100.00
67434;BME280;54305;47.950;6.572;2023-04-08T02:28:45;94585.22;;;2.23;100.00
67434;BME280;54305;47.950;6.572;2023-04-08T02:31:13;94579.78;;;2.15;100.00
67434;BME280;54305;47.950;6.572;2023-04-08T02:33:41;94578.25;;;2.12;100.00
67434;BME280;54305;47.950;6.572;2023-04-08T02:36:06;94575.78;;;2.23;100.00
67434;BME280;54305;47.950;6.572;2023-04-08T02:38:32;94577.41;;;2.37;100.00
67434;BME280;54305;47.950;6.572;2023-04-08T02:40:58;94571.78;;;2.55;100.00
67434;BME280;54305;47.950;6.572;2023-04-08T02:43:23;94562.88;;;2.72;100.00
67434;BME280;54305;47.950;6.572;2023-04-08T02:45:58;94570.50;;;2.73;100.00
67434;BME280;54305;47.950;6.572;2023-04-08T02:48:28;94569.44;;;2.76;100.00
67434;BME280;54305;47.950;6.572;2023-04-08T02:50:53;94569.88;;;2.70;100.00
67434;BME280;54305;47.950;6.572;2023-04-08T02:53:18;94564.94;;;2.67;100.00
67434;BME280;54305;47.950;6.572;2023-04-08T02:55:44;94571.38;;;2.61;100.00
67434;BME280;54305;47.950;6.572;2023-04-08T02:58:09;94567.03;;;2.62;100.00
67434;BME280;54305;47.950;6.572;2023-04-08T03:00:34;94574.69;;;2.51;100.00
67434;BME280;54305;47.950;6.572;2023-04-08T03:03:00;94566.03;;;2.52;100.00
67434;BME280;54305;47.950;6.572;2023-04-08T03:05:25;94578.81;;;2.41;100.00
67434;BME280;54305;47.950;6.572;2023-04-08T03:07:51;94580.59;;;2.28;100.00
67434;BME280;54305;47.950;6.572;2023-04-08T03:10:16;94573.94;;;2.13;100.00
67434;BME280;54305;47.950;6.572;2023-04-08T03:12:41;94578.69;;;2.06;100.00
67434;BME280;54305;47.950;6.572;2023-04-08T03:15:07;94582.72;;;1.98;100.00
67434;BME280;54305;47.950;6.572;2023-04-08T03:17:32;94573.94;;;2.13;100.00
67434;BME280;54305;47.950;6.572;2023-04-08T03:19:58;94579.09;;;2.13;100.00
67434;BME280;54305;47.950;6.572;2023-04-08T03:22:24;94584.22;;;2.13;100.00
67434;BME280;54305;47.950;6.572;2023-04-08T03:24:49;94578.66;;;2.19;100.00
67434;BME280;54305;47.950;6.572;2023-04-08T03:27:14;94589.75;;;2.19;100.00
67434;BME280;54305;47.950;6.572;2023-04-08T03:29:40;94578.88;;;2.16;100.00
67434;BME280;54305;47.950;6.572;2023-04-08T03:32:05;94579.78;;;2.15;100.00
67434;BME280;54305;47.950;6.572;2023-04-08T03:34:32;94581.22;;;2.19;100.00
67434;BME280;54305;47.950;6.572;2023-04-08T03:36:58;94577.97;;;2.17;100.00
67434;BME280;54305;47.950;6.572;2023-04-08T03:39:23;94585.22;;;2.23;100.00
67434;BME280;54305;47.950;6.572;2023-04-08T03:41:48;94585.03;;;2.26;100.00
67434;BME280;54305;47.950;6.572;2023-04-08T03:44:13;94583.09;;;2.17;100.00
67434;BME280;54305;47.950;6.572;2023-04-08T03:46:39;94586.25;;;2.20;100.00
67434;BME280;54305;47.950;6.572;2023-04-08T03:49:04;94598.28;;;2.20;100.00
67434;BME280;54305;47.950;6.572;2023-04-08T03:51:29;94589.16;;;2.16;100.00
67434;BME280;54305;47.950;6.572;2023-04-08T03:53:55;94598.44;;;2.06;100.00
67434;BME280;54305;47.950;6.572;2023-04-08T03:56:20;94594.09;;;1.94;100.00
67434;BME280;54305;47.950;6.572;2023-04-08T03:58:45;94594.19;;;2.05;100.00
67434;BME280;54305;47.950;6.572;2023-04-08T04:01:11;94590.41;;;1.98;100.00
67434;BME280;54305;47.950;6.572;2023-04-08T04:03:36;94588.53;;;2.00;100.00
67434;BME280;54305;47.950;6.572;2023-04-08T04:06:01;94593.69;;;2.00;100.00
67434;BME280;54305;47.950;6.572;2023-04-08T04:08:27;94593.91;;;1.97;100.00
67434;BME280;54305;47.950;6.572;2023-04-08T04:10:52;94591.03;;;1.89;100.00
67434;BME280;54305;47.950;6.572;2023-04-08T04:13:17;94588.56;;;1.87;100.00
67434;BME280;54305;47.950;6.572;2023-04-08T04:15:43;94584.78;;;1.80;100.00
67434;BME280;54305;47.950;6.572;2023-04-08T04:18:09;94594.13;;;1.81;100.00
67434;BME280;54305;47.950;6.572;2023-04-08T04:20:34;94590.00;;;1.79;100.00
67434;BME280;54305;47.950;6.572;2023-04-08T04:23:01;94595.94;;;1.67;100.00
67434;BME280;54305;47.950;6.572;2023-04-08T04:25:26;94590.94;;;1.78;100.00
67434;BME280;54305;47.950;6.572;2023-04-08T04:27:51;94593.69;;;1.75;100.00
67434;BME280;54305;47.950;6.572;2023-04-08T04:30:16;94598.31;;;1.95;100.00
67434;BME280;54305;47.950;6.572;2023-04-08T04:32:43;94594.94;;;1.94;100.00
67434;BME280;54305;47.950;6.572;2023-04-08T04:35:09;94597.38;;;1.96;100.00
67434;BME280;54305;47.950;6.572;2023-04-08T04:37:34;94609.09;;;1.87;100.00
67434;BME280;54305;47.950;6.572;2023-04-08T04:40:01;94600.28;;;1.79;100.00
67434;BME280;54305;47.950;6.572;2023-04-08T04:42:26;94599.66;;;1.75;100.00
67434;BME280;54305;47.950;6.572;2023-04-08T04:44:51;94602.53;;;1.71;100.00
67434;BME280;54305;47.950;6.572;2023-04-08T04:47:18;94609.19;;;1.61;100.00
67434;BME280;54305;47.950;6.572;2023-04-08T04:49:43;94615.06;;;1.63;100.00
67434;BME280;54305;47.950;6.572;2023-04-08T04:52:09;94632.09;;;1.64;100.00
67434;BME280;54305;47.950;6.572;2023-04-08T04:54:35;94620.38;;;1.60;100.00
67434;BME280;54305;47.950;6.572;2023-04-08T04:57:00;94630.53;;;1.49;100.00
67434;BME280;54305;47.950;6.572;2023-04-08T04:59:25;94622.09;;;1.47;100.00
67434;BME280;54305;47.950;6.572;2023-04-08T05:01:50;94633.53;;;1.43;100.00
67434;BME280;54305;47.950;6.572;2023-04-08T05:04:16;94626.94;;;1.39;100.00
67434;BME280;54305;47.950;6.572;2023-04-08T05:06:41;94628.56;;;1.40;100.00
67434;BME280;54305;47.950;6.572;2023-04-08T05:09:06;94632.06;;;1.39;100.00
67434;BME280;54305;47.950;6.572;2023-04-08T05:11:31;94633.31;;;1.46;100.00
67434;BME280;54305;47.950;6.572;2023-04-08T05:13:57;94635.16;;;1.44;100.00
67434;BME280;54305;47.950;6.572;2023-04-08T05:16:22;94637.91;;;1.41;100.00
67434;BME280;54305;47.950;6.572;2023-04-08T05:18:47;94636.97;;;1.42;100.00
67434;BME280;54305;47.950;6.572;2023-04-08T05:21:12;94634.13;;;1.46;100.00
67434;BME280;54305;47.950;6.572;2023-04-08T05:23:38;94643.38;;;1.49;100.00
67434;BME280;54305;47.950;6.572;2023-04-08T05:26:05;94633.63;;;1.54;100.00
67434;BME280;54305;47.950;6.572;2023-04-08T05:28:30;94634.84;;;1.61;100.00
67434;BME280;54305;47.950;6.572;2023-04-08T05:30:56;94634.56;;;1.53;100.00
67434;BME280;54305;47.950;6.572;2023-04-08T05:33:21;94629.03;;;1.59;100.00
67434;BME280;54305;47.950;6.572;2023-04-08T05:35:46;94643.59;;;1.71;100.00
67434;BME280;54305;47.950;6.572;2023-04-08T05:38:11;94646.16;;;1.83;100.00
67434;BME280;54305;47.950;6.572;2023-04-08T05:40:37;94645.66;;;1.78;100.00
67434;BME280;54305;47.950;6.572;2023-04-08T05:43:02;94651.53;;;1.93;100.00
67434;BME280;54305;47.950;6.572;2023-04-08T05:45:28;94653.78;;;2.10;100.00
67434;BME280;54305;47.950;6.572;2023-04-08T05:47:53;94655.72;;;2.19;100.00
67434;BME280;54305;47.950;6.572;2023-04-08T05:50:18;94658.59;;;2.27;100.00
67434;BME280;54305;47.950;6.572;2023-04-08T05:52:46;94653.25;;;2.42;100.00
67434;BME280;54305;47.950;6.572;2023-04-08T05:55:12;94657.44;;;2.56;100.00
67434;BME280;54305;47.950;6.572;2023-04-08T05:57:37;94653.59;;;2.74;100.00
67434;BME280;54305;47.950;6.572;2023-04-08T06:00:03;94654.34;;;2.87;100.00
67434;BME280;54305;47.950;6.572;2023-04-08T06:02:29;94659.91;;;2.93;100.00
67434;BME280;54305;47.950;6.572;2023-04-08T06:04:54;94653.06;;;3.05;100.00
67434;BME280;54305;47.950;6.572;2023-04-08T06:07:20;94664.56;;;3.12;100.00
67434;BME280;54305;47.950;6.572;2023-04-08T06:09:45;94666.44;;;3.10;100.00
67434;BME280;54305;47.950;6.572;2023-04-08T06:12:11;94663.91;;;3.21;100.00
67434;BME280;54305;47.950;6.572;2023-04-08T06:14:36;94672.50;;;3.32;100.00
67434;BME280;54305;47.950;6.572;2023-04-08T06:17:01;94669.22;;;3.30;100.00
67434;BME280;54305;47.950;6.572;2023-04-08T06:19:26;94670.22;;;3.40;100.00
67434;BME280;54305;47.950;6.572;2023-04-08T06:21:52;94671.06;;;3.52;100.00
67434;BME280;54305;47.950;6.572;2023-04-08T06:24:22;94670.66;;;3.69;100.00
67434;BME280;54305;47.950;6.572;2023-04-08T06:26:47;94672.09;;;3.84;100.00
67434;BME280;54305;47.950;6.572;2023-04-08T06:29:13;94667.38;;;4.01;100.00
67434;BME280;54305;47.950;6.572;2023-04-08T06:31:38;94673.00;;;4.17;100.00
67434;BME280;54305;47.950;6.572;2023-04-08T06:34:03;94665.19;;;4.41;100.00
67434;BME280;54305;47.950;6.572;2023-04-08T06:36:28;94675.03;;;4.69;100.00
67434;BME280;54305;47.950;6.572;2023-04-08T06:38:54;94678.06;;;4.96;100.00
67434;BME280;54305;47.950;6.572;2023-04-08T06:41:19;94677.53;;;5.24;100.00
67434;BME280;54305;47.950;6.572;2023-04-08T06:43:45;94678.78;;;5.40;100.00
67434;BME280;54305;47.950;6.572;2023-04-08T06:46:10;94679.31;;;5.55;100.00
67434;BME280;54305;47.950;6.572;2023-04-08T06:48:35;94679.50;;;5.74;100.00
67434;BME280;54305;47.950;6.572;2023-04-08T06:51:01;94684.63;;;5.85;100.00
67434;BME280;54305;47.950;6.572;2023-04-08T06:53:27;94670.22;;;6.03;100.00
67434;BME280;54305;47.950;6.572;2023-04-08T06:55:56;94681.13;;;6.27;100.00
67434;BME280;54305;47.950;6.572;2023-04-08T06:58:22;94682.50;;;6.31;100.00
67434;BME280;54305;47.950;6.572;2023-04-08T07:00:47;94681.44;;;6.33;100.00
67434;BME280;54305;47.950;6.572;2023-04-08T07:03:12;94680.72;;;6.52;100.00
67434;BME280;54305;47.950;6.572;2023-04-08T07:05:38;94677.25;;;6.72;100.00
67434;BME280;54305;47.950;6.572;2023-04-08T07:08:03;94676.78;;;6.87;100.00
67434;BME280;54305;47.950;6.572;2023-04-08T07:10:29;94682.84;;;7.07;100.00
67434;BME280;54305;47.950;6.572;2023-04-08T07:12:54;94683.22;;;7.42;100.00
67434;BME280;54305;47.950;6.572;2023-04-08T07:15:20;94682.53;;;7.59;100.00
67434;BME280;54305;47.950;6.572;2023-04-08T07:17:46;94685.81;;;7.80;100.00
67434;BME280;54305;47.950;6.572;2023-04-08T07:20:11;94688.00;;;7.94;100.00
67434;BME280;54305;47.950;6.572;2023-04-08T07:22:37;94688.16;;;8.02;100.00
67434;BME280;54305;47.950;6.572;2023-04-08T07:25:03;94683.53;;;7.96;100.00
67434;BME280;54305;47.950;6.572;2023-04-08T07:27:28;94697.44;;;8.04;100.00
67434;BME280;54305;47.950;6.572;2023-04-08T07:29:53;94687.75;;;8.16;100.00
67434;BME280;54305;47.950;6.572;2023-04-08T07:32:21;94694.44;;;8.28;100.00
67434;BME280;54305;47.950;6.572;2023-04-08T07:34:48;94693.16;;;8.51;100.00
67434;BME280;54305;47.950;6.572;2023-04-08T07:37:14;94695.44;;;8.73;100.00
67434;BME280;54305;47.950;6.572;2023-04-08T07:39:39;94699.22;;;8.88;100.00
67434;BME280;54305;47.950;6.572;2023-04-08T07:42:04;94698.13;;;8.81;100.00
67434;BME280;54305;47.950;6.572;2023-04-08T07:44:30;94703.34;;;8.81;100.00
67434;BME280;54305;47.950;6.572;2023-04-08T07:46:55;94696.22;;;8.83;100.00
67434;BME280;54305;47.950;6.572;2023-04-08T07:49:20;94695.19;;;8.66;100.00
67434;BME280;54305;47.950;6.572;2023-04-08T07:51:46;94702.53;;;8.71;100.00
67434;BME280;54305;47.950;6.572;2023-04-08T07:54:11;94709.28;;;9.00;100.00
67434;BME280;54305;47.950;6.572;2023-04-08T07:56:41;94706.50;;;9.11;100.00
67434;BME280;54305;47.950;6.572;2023-04-08T07:59:08;94705.31;;;9.33;100.00
67434;BME280;54305;47.950;6.572;2023-04-08T08:01:33;94704.13;;;9.72;100.00
67434;BME280;54305;47.950;6.572;2023-04-08T08:03:59;94710.91;;;10.00;100.00
67434;BME280;54305;47.950;6.572;2023-04-08T08:06:25;94714.16;;;10.02;100.00
67434;BME280;54305;47.950;6.572;2023-04-08T08:08:51;94704.91;;;10.17;100.00
67434;BME280;54305;47.950;6.572;2023-04-08T08:11:16;94714.88;;;10.21;100.00
67434;BME280;54305;47.950;6.572;2023-04-08T08:13:42;94711.88;;;9.99;100.00
67434;BME280;54305;47.950;6.572;2023-04-08T08:16:07;94715.25;;;10.09;100.00
67434;BME280;54305;47.950;6.572;2023-04-08T08:18:35;94712.94;;;10.23;100.00
67434;BME280;54305;47.950;6.572;2023-04-08T08:21:01;94711.34;;;10.48;100.00
67434;BME280;54305;47.950;6.572;2023-04-08T08:23:26;94713.88;;;10.40;100.00
67434;BME280;54305;47.950;6.572;2023-04-08T08:26:03;94709.94;;;10.79;100.00
67434;BME280;54305;47.950;6.572;2023-04-08T08:28:28;94713.59;;;10.94;100.00
67434;BME280;54305;47.950;6.572;2023-04-08T08:30:53;94713.78;;;11.26;100.00
67434;BME280;54305;47.950;6.572;2023-04-08T08:33:19;94710.16;;;11.52;100.00
67434;BME280;54305;47.950;6.572;2023-04-08T08:35:44;94707.00;;;11.41;94.56
67434;BME280;54305;47.950;6.572;2023-04-08T08:38:09;94714.88;;;11.57;91.12
67434;BME280;54305;47.950;6.572;2023-04-08T08:40:35;94711.09;;;11.85;91.85
67434;BME280;54305;47.950;6.572;2023-04-08T08:43:00;94711.47;;;11.98;94.44
67434;BME280;54305;47.950;6.572;2023-04-08T08:45:26;94709.84;;;12.13;94.65
67434;BME280;54305;47.950;6.572;2023-04-08T08:47:51;94717.06;;;12.27;92.23
67434;BME280;54305;47.950;6.572;2023-04-08T08:50:16;94708.72;;;11.58;83.27
67434;BME280;54305;47.950;6.572;2023-04-08T08:52:49;94722.31;;;11.69;98.02
67434;BME280;54305;47.950;6.572;2023-04-08T08:55:16;94726.91;;;11.83;95.73
67434;BME280;54305;47.950;6.572;2023-04-08T08:57:42;94724.69;;;12.04;100.00
67434;BME280;54305;47.950;6.572;2023-04-08T09:00:07;94723.88;;;12.04;97.91
67434;BME280;54305;47.950;6.572;2023-04-08T09:02:32;94727.16;;;12.22;99.12
67434;BME280;54305;47.950;6.572;2023-04-08T09:04:58;94732.84;;;12.09;100.00
67434;BME280;54305;47.950;6.572;2023-04-08T09:07:25;94732.44;;;11.72;99.86
67434;BME280;54305;47.950;6.572;2023-04-08T09:09:53;94730.75;;;12.29;94.54
67434;BME280;54305;47.950;6.572;2023-04-08T09:12:19;94729.13;;;12.76;89.95
67434;BME280;54305;47.950;6.572;2023-04-08T09:14:44;94732.06;;;12.81;80.93
67434;BME280;54305;47.950;6.572;2023-04-08T09:17:10;94729.09;;;13.24;77.08
67434;BME280;54305;47.950;6.572;2023-04-08T09:19:35;94736.16;;;13.70;82.09
67434;BME280;54305;47.950;6.572;2023-04-08T09:22:05;94737.88;;;13.31;80.89
67434;BME280;54305;47.950;6.572;2023-04-08T09:24:33;94737.63;;;13.10;80.36
67434;BME280;54305;47.950;6.572;2023-04-08T09:26:59;94728.16;;;13.09;81.54
67434;BME280;54305;47.950;6.572;2023-04-08T09:29:25;94737.63;;;12.46;83.28
67434;BME280;54305;47.950;6.572;2023-04-08T09:31:58;94737.88;;;11.95;90.75
67434;BME280;54305;47.950;6.572;2023-04-08T09:34:24;94748.47;;;10.93;89.28
67434;BME280;54305;47.950;6.572;2023-04-08T09:36:50;94739.84;;;11.93;100.00
67434;BME280;54305;47.950;6.572;2023-04-08T09:39:15;94741.88;;;11.65;100.00
67434;BME280;54305;47.950;6.572;2023-04-08T09:41:41;94741.22;;;11.71;100.00
67434;BME280;54305;47.950;6.572;2023-04-08T09:44:07;94747.94;;;11.40;100.00
67434;BME280;54305;47.950;6.572;2023-04-08T09:51:41;94753.59;;;10.59;100.00
67434;BME280;54305;47.950;6.572;2023-04-08T09:54:14;94752.31;;;10.81;100.00
67434;BME280;54305;47.950;6.572;2023-04-08T09:56:46;94758.06;;;11.18;100.00
67434;BME280;54305;47.950;6.572;2023-04-08T09:59:13;94760.78;;;11.42;100.00
67434;BME280;54305;47.950;6.572;2023-04-08T10:01:47;94753.38;;;11.55;100.00
67434;BME280;54305;47.950;6.572;2023-04-08T10:04:14;94760.34;;;11.80;100.00
67434;BME280;54305;47.950;6.572;2023-04-08T10:06:51;94756.28;;;11.52;100.00
67434;BME280;54305;47.950;6.572;2023-04-08T10:09:19;94762.13;;;11.46;100.00
67434;BME280;54305;47.950;6.572;2023-04-08T10:11:44;94759.16;;;11.41;100.00
67434;BME280;54305;47.950;6.572;2023-04-08T10:14:10;94761.50;;;11.52;100.00
67434;BME280;54305;47.950;6.572;2023-04-08T10:16:35;94771.41;;;11.74;97.61
67434;BME280;54305;47.950;6.572;2023-04-08T10:19:00;94765.50;;;11.64;93.06
67434;BME280;54305;47.950;6.572;2023-04-08T10:23:57;94765.53;;;11.72;97.81
67434;BME280;54305;47.950;6.572;2023-04-08T10:31:43;94759.84;;;12.58;94.07
67434;BME280;54305;47.950;6.572;2023-04-08T10:34:18;94760.28;;;13.33;92.47
67434;BME280;54305;47.950;6.572;2023-04-08T10:36:44;94753.91;;;13.36;85.35
67434;BME280;54305;47.950;6.572;2023-04-08T10:39:10;94752.66;;;13.00;86.85
67434;BME280;54305;47.950;6.572;2023-04-08T10:41:42;94762.09;;;12.29;86.29
67434;BME280;54305;47.950;6.572;2023-04-08T10:44:22;94761.75;;;12.24;92.01
67434;BME280;54305;47.950;6.572;2023-04-08T10:46:48;94758.66;;;12.20;91.51
67434;BME280;54305;47.950;6.572;2023-04-08T10:49:14;94762.38;;;12.10;93.73
67434;BME280;54305;47.950;6.572;2023-04-08T10:51:39;94760.03;;;11.91;90.61
67434;BME280;54305;47.950;6.572;2023-04-08T10:54:09;94756.78;;;11.89;89.39
67434;BME280;54305;47.950;6.572;2023-04-08T10:56:35;94758.97;;;11.60;89.87
67434;BME280;54305;47.950;6.572;2023-04-08T10:59:00;94754.19;;;11.22;95.15
67434;BME280;54305;47.950;6.572;2023-04-08T11:01:25;94764.50;;;11.31;96.66
67434;BME280;54305;47.950;6.572;2023-04-08T11:03:51;94759.25;;;10.98;94.65
67434;BME280;54305;47.950;6.572;2023-04-08T11:06:17;94760.13;;;10.81;100.00
67434;BME280;54305;47.950;6.572;2023-04-08T11:08:43;94760.19;;;10.71;100.00
67434;BME280;54305;47.950;6.572;2023-04-08T11:11:09;94767.56;;;10.76;100.00
67434;BME280;54305;47.950;6.572;2023-04-08T11:13:36;94759.56;;;10.52;100.00
67434;BME280;54305;47.950;6.572;2023-04-08T11:16:02;94764.56;;;10.28;100.00
67434;BME280;54305;47.950;6.572;2023-04-08T11:18:29;94756.00;;;10.53;100.00
67434;BME280;54305;47.950;6.572;2023-04-08T11:20:55;94763.25;;;10.67;100.00
67434;BME280;54305;47.950;6.572;2023-04-08T11:23:23;94758.34;;;10.64;100.00
67434;BME280;54305;47.950;6.572;2023-04-08T11:25:49;94755.13;;;10.87;100.00
67434;BME280;54305;47.950;6.572;2023-04-08T11:28:14;94761.44;;;11.10;100.00
67434;BME280;54305;47.950;6.572;2023-04-08T11:30:41;94751.81;;;11.36;100.00
67434;BME280;54305;47.950;6.572;2023-04-08T11:33:06;94754.44;;;11.70;100.00
67434;BME280;54305;47.950;6.572;2023-04-08T11:35:32;94750.69;;;12.30;100.00
67434;BME280;54305;47.950;6.572;2023-04-08T11:37:57;94748.75;;;12.56;95.46
67434;BME280;54305;47.950;6.572;2023-04-08T11:40:23;94751.19;;;12.81;88.98
67434;BME280;54305;47.950;6.572;2023-04-08T11:42:50;94750.06;;;13.08;85.83
67434;BME280;54305;47.950;6.572;2023-04-08T11:45:16;94755.81;;;13.58;88.67
67434;BME280;54305;47.950;6.572;2023-04-08T11:47:42;94753.00;;;13.13;83.22
67434;BME280;54305;47.950;6.572;2023-04-08T11:50:07;94754.19;;;13.49;88.76
67434;BME280;54305;47.950;6.572;2023-04-08T11:53:14;94747.56;;;13.30;87.84
67434;BME280;54305;47.950;6.572;2023-04-08T11:55:26;94748.56;;;13.13;85.27
67434;BME280;54305;47.950;6.572;2023-04-08T11:57:52;94744.16;;;12.66;89.66
67434;BME280;54305;47.950;6.572;2023-04-08T12:00:18;94744.50;;;12.55;91.47
67434;BME280;54305;47.950;6.572;2023-04-08T12:02:44;94740.56;;;12.67;92.10
67434;BME280;54305;47.950;6.572;2023-04-08T12:05:11;94738.59;;;12.77;86.64
67434;BME280;54305;47.950;6.572;2023-04-08T12:07:36;94734.22;;;12.85;84.57
67434;BME280;54305;47.950;6.572;2023-04-08T12:10:02;94749.22;;;12.75;82.37
67434;BME280;54305;47.950;6.572;2023-04-08T12:12:27;94746.78;;;12.90;84.31
67434;BME280;54305;47.950;6.572;2023-04-08T12:14:53;94746.78;;;13.06;80.94
67434;BME280;54305;47.950;6.572;2023-04-08T12:17:18;94749.22;;;12.99;80.67
67434;BME280;54305;47.950;6.572;2023-04-08T12:19:44;94744.47;;;12.95;75.90
67434;BME280;54305;47.950;6.572;2023-04-08T12:22:10;94743.34;;;12.81;81.49
67434;BME280;54305;47.950;6.572;2023-04-08T12:24:35;94744.00;;;12.27;78.96
67434;BME280;54305;47.950;6.572;2023-04-08T12:27:00;94743.44;;;12.00;84.75
67434;BME280;54305;47.950;6.572;2023-04-08T12:29:28;94743.91;;;11.95;92.21
67434;BME280;54305;47.950;6.572;2023-04-08T12:31:54;94742.31;;;12.10;88.22
67434;BME280;54305;47.950;6.572;2023-04-08T12:34:19;94747.06;;;12.07;89.20
67434;BME280;54305;47.950;6.572;2023-04-08T12:36:45;94745.38;;;11.98;88.25
67434;BME280;54305;47.950;6.572;2023-04-08T12:39:11;94750.53;;;11.74;89.52
67434;BME280;54305;47.950;6.572;2023-04-08T12:41:36;94745.03;;;11.85;89.30
67434;BME280;54305;47.950;6.572;2023-04-08T12:44:02;94742.00;;;12.13;90.57
67434;BME280;54305;47.950;6.572;2023-04-08T12:46:27;94747.69;;;12.01;86.42
67434;BME280;54305;47.950;6.572;2023-04-08T12:48:52;94742.50;;;12.33;87.17
67434;BME280;54305;47.950;6.572;2023-04-08T12:51:17;94747.72;;;12.17;85.64
67434;BME280;54305;47.950;6.572;2023-04-08T12:53:43;94748.66;;;11.92;87.01
67434;BME280;54305;47.950;6.572;2023-04-08T12:56:08;94746.56;;;11.62;85.32
67434;BME280;54305;47.950;6.572;2023-04-08T12:58:34;94744.94;;;11.35;84.97
67434;BME280;54305;47.950;6.572;2023-04-08T13:00:59;94750.38;;;11.42;85.63
67434;BME280;54305;47.950;6.572;2023-04-08T13:03:25;94744.50;;;11.73;91.70
67434;BME280;54305;47.950;6.572;2023-04-08T13:05:52;94743.09;;;11.95;86.40
67434;BME280;54305;47.950;6.572;2023-04-08T13:08:17;94744.91;;;12.02;87.19
67434;BME280;54305;47.950;6.572;2023-04-08T13:10:43;94743.16;;;12.27;80.46
67434;BME280;54305;47.950;6.572;2023-04-08T13:13:08;94743.81;;;12.21;82.88